createdAt,value
2023-04-22T00:03:49.753Z,2.77
2023-04-22T00:08:51.241Z,2.60
2023-04-22T00:13:52.671Z,2.70
2023-04-22T00:18:54.083Z,3.53
2023-04-22T00:23:55.549Z,3.03
2023-04-22T00:28:57.044Z,3.23
2023-04-22T00:33:58.370Z,2.63
2023-04-22T00:38:59.789Z,2.77
2023-04-22T00:44:01.536Z,2.70
2023-04-22T00:49:03.301Z,3.20
2023-04-22T00:54:06.322Z,3.20
2023-04-22T00:59:08.770Z,2.97
2023-04-22T01:04:12.868Z,2.77
2023-04-22T01:09:14.710Z,2.80
2023-04-22T01:14:16.464Z,2.90
2023-04-22T01:19:17.897Z,2.80
2023-04-22T01:24:19.365Z,3.43
2023-04-22T01:29:20.810Z,3.30
2023-04-22T01:34:22.613Z,3.13
2023-04-22T01:39:24.051Z,3.53
2023-04-22T01:44:26.276Z,3.30
2023-04-22T01:49:27.631Z,3.40
2023-04-22T01:54:29.004Z,2.80
2023-04-22T01:59:30.400Z,3.13
2023-04-22T02:04:31.949Z,3.73
2023-04-22T02:09:33.398Z,3.57
2023-04-22T02:14:35.728Z,3.97
2023-04-22T02:19:37.339Z,3.60
2023-04-22T02:24:38.977Z,3.93
2023-04-22T02:29:41.851Z,3.30
2023-04-22T02:34:43.514Z,4.47
2023-04-22T02:39:44.869Z,3.93
2023-04-22T02:44:46.235Z,3.73
2023-04-22T02:49:47.744Z,4.20
2023-04-22T02:54:49.092Z,3.23
2023-04-22T02:59:50.906Z,3.80
2023-04-22T03:04:55.488Z,3.60
2023-04-22T03:14:58.131Z,4.20
2023-04-22T03:19:59.465Z,3.70
2023-04-22T03:25:01.066Z,4.07
2023-04-22T03:30:02.811Z,4.00
2023-04-22T03:35:04.831Z,4.47
2023-04-22T03:40:07.273Z,4.80
2023-04-22T03:45:08.902Z,3.93
2023-04-22T03:50:10.816Z,4.50
2023-04-22T03:55:12.187Z,5.57
2023-04-22T04:00:13.676Z,4.73
2023-04-22T04:05:15.241Z,4.67
2023-04-22T04:10:16.735Z,4.77
2023-04-22T04:15:21.479Z,5.33
2023-04-22T04:20:22.859Z,6.40
2023-04-22T04:25:24.177Z,4.97
2023-04-22T04:30:31.067Z,6.27
2023-04-22T04:35:34.412Z,6.47
2023-04-22T04:40:37.044Z,4.80
2023-04-22T04:45:39.317Z,5.00
2023-04-22T04:50:43.792Z,4.80
2023-04-22T04:55:45.215Z,5.50
2023-04-22T05:00:46.975Z,5.53
2023-04-22T05:05:49.037Z,5.87
2023-04-22T05:10:50.936Z,5.37
2023-04-22T05:15:52.251Z,5.73
2023-04-22T05:20:53.918Z,5.88
2023-04-22T05:25:55.345Z,4.95
2023-04-22T05:30:57.282Z,5.22
2023-04-22T05:35:58.651Z,5.85
2023-04-22T05:41:00.182Z,5.15
2023-04-22T05:46:01.885Z,5.70
2023-04-22T05:51:03.379Z,5.43
2023-04-22T05:56:04.985Z,5.82
2023-04-22T06:01:06.471Z,5.35
2023-04-22T06:06:08.196Z,5.25
2023-04-22T06:11:10.169Z,4.93
2023-04-22T06:16:11.927Z,5.07
2023-04-22T06:21:13.414Z,5.22
2023-04-22T06:26:14.912Z,5.32
2023-04-22T06:31:17.139Z,5.38
2023-04-22T06:36:20.164Z,4.78
2023-04-22T06:41:22.617Z,4.88
2023-04-22T06:46:24.032Z,4.78
2023-04-22T06:51:25.410Z,5.20
2023-04-22T06:56:26.953Z,4.78
2023-04-22T07:01:28.365Z,5.00
2023-04-22T07:06:29.816Z,5.40
2023-04-22T07:11:31.664Z,5.78
2023-04-22T07:16:33.209Z,5.75
2023-04-22T07:21:34.612Z,5.22
2023-04-22T07:26:35.947Z,5.68
2023-04-22T07:31:37.371Z,5.40
2023-04-22T07:36:38.798Z,5.30
2023-04-22T07:41:40.343Z,5.18
2023-04-22T07:46:42.243Z,5.32
2023-04-22T07:51:44.099Z,4.53
2023-04-22T07:56:45.409Z,5.45
2023-04-22T08:01:46.718Z,4.65
2023-04-22T08:06:48.132Z,4.82
2023-04-22T08:11:49.445Z,4.60
2023-04-22T08:16:51.566Z,4.53
2023-04-22T08:21:53.492Z,5.38
2023-04-22T08:26:55.486Z,4.40
2023-04-22T08:31:56.819Z,3.72
2023-04-22T08:36:58.413Z,4.85
2023-04-22T08:41:59.853Z,4.18
2023-04-22T08:47:02.937Z,3.97
2023-04-22T08:52:04.630Z,4.68
2023-04-22T08:57:06.225Z,4.50
2023-04-22T09:02:13.613Z,3.97
2023-04-22T09:07:25.447Z,3.65
2023-04-22T09:12:27.532Z,4.68
2023-04-22T09:17:37.209Z,4.95
2023-04-22T09:22:42.613Z,4.47
2023-04-22T09:27:48.104Z,4.25
2023-04-22T09:32:54.898Z,4.40
2023-04-22T09:37:56.892Z,4.45
2023-04-22T09:43:00.134Z,4.90
2023-04-22T09:48:10.591Z,4.18
2023-04-22T09:53:13.723Z,3.25
2023-04-22T09:58:18.516Z,2.83
2023-04-22T10:03:20.239Z,3.30
2023-04-22T10:08:21.828Z,3.28
2023-04-22T10:13:23.430Z,3.85
2023-04-22T10:18:26.070Z,3.20
2023-04-22T10:23:31.990Z,3.23
2023-04-22T10:28:33.357Z,4.10
2023-04-22T10:33:36.432Z,3.45
2023-04-22T10:38:38.395Z,6.05
2023-04-22T10:43:42.795Z,5.18
2023-04-22T10:48:47.990Z,3.13
2023-04-22T10:53:49.373Z,3.15
2023-04-22T10:58:50.729Z,2.97
2023-04-22T11:03:52.279Z,3.65
2023-04-22T11:09:08.006Z,26.42
2023-04-22T11:14:10.218Z,3.70
2023-04-22T11:19:11.562Z,3.15
2023-04-22T11:24:17.929Z,3.10
2023-04-22T11:29:19.830Z,3.00
2023-04-22T11:34:21.178Z,2.83
2023-04-22T11:39:22.553Z,10.73
2023-04-22T11:44:25.610Z,16.13
2023-04-22T11:49:27.859Z,41.72
2023-04-22T11:54:33.152Z,27.85
2023-04-22T11:59:35.155Z,8.95
2023-04-22T12:04:40.182Z,2.47
2023-04-22T12:09:41.906Z,2.58
2023-04-22T12:14:45.615Z,2.70
2023-04-22T12:19:47.262Z,4.38
2023-04-22T12:24:48.633Z,2.40
2023-04-22T12:29:53.868Z,2.97
2023-04-22T12:34:55.325Z,2.72
2023-04-22T12:39:56.710Z,6.20
2023-04-22T12:44:58.104Z,2.83
2023-04-22T12:50:01.392Z,2.72
2023-04-22T12:55:02.852Z,2.78
2023-04-22T13:00:06.687Z,3.25
2023-04-22T13:05:08.764Z,2.92
2023-04-22T13:10:11.451Z,2.92
2023-04-22T13:15:13.907Z,8.85
2023-04-22T13:20:16.582Z,2.70
2023-04-22T13:25:18.020Z,2.80
2023-04-22T13:30:20.102Z,2.83
2023-04-22T13:35:21.545Z,2.55
2023-04-22T13:40:22.974Z,2.33
2023-04-22T13:45:25.552Z,2.22
2023-04-22T13:50:26.979Z,2.67
2023-04-22T13:55:28.355Z,2.60
2023-04-22T14:00:29.748Z,2.30
2023-04-22T14:05:31.357Z,2.20
2023-04-22T14:10:32.939Z,2.40
2023-04-22T14:15:34.377Z,2.45
2023-04-22T14:20:35.760Z,2.20
2023-04-22T14:25:37.377Z,2.80
2023-04-22T14:30:39.236Z,2.90
2023-04-22T14:35:40.880Z,1.90
2023-04-22T14:40:42.283Z,3.00
2023-04-22T14:45:43.706Z,2.70
2023-04-22T14:50:45.221Z,4.13
2023-04-22T14:55:46.508Z,2.72
2023-04-22T15:01:00.774Z,2.88
2023-04-22T15:06:02.166Z,3.30
2023-04-22T15:11:03.516Z,4.45
2023-04-22T15:16:05.037Z,2.53
2023-04-22T15:21:10.150Z,3.13
2023-04-22T15:26:12.124Z,2.72
2023-04-22T15:31:13.543Z,2.42
2023-04-22T15:36:18.186Z,3.17
2023-04-22T15:41:19.662Z,2.53
2023-04-22T15:46:21.728Z,2.85
2023-04-22T15:51:23.178Z,2.85
2023-04-22T15:56:25.021Z,2.70
2023-04-22T16:01:26.533Z,2.55
2023-04-22T16:06:28.036Z,2.92
2023-04-22T16:11:30.374Z,3.20
2023-04-22T16:16:32.084Z,2.85
2023-04-22T16:21:33.882Z,2.80
2023-04-22T16:26:35.305Z,2.50
2023-04-22T16:31:38.893Z,2.42
2023-04-22T16:41:43.339Z,2.47
2023-04-22T16:46:44.985Z,2.88
2023-04-22T16:51:46.491Z,2.95
2023-04-22T16:56:47.893Z,2.70
2023-04-22T17:01:49.274Z,2.78
2023-04-22T17:06:50.904Z,2.45
2023-04-22T17:11:52.302Z,2.92
2023-04-22T17:16:53.634Z,2.38
2023-04-22T17:21:55.066Z,2.30
2023-04-22T17:26:56.540Z,2.50
2023-04-22T17:31:57.929Z,2.78
2023-04-22T17:36:59.387Z,2.92
2023-04-22T17:42:00.763Z,4.28
2023-04-22T17:47:02.490Z,2.97
2023-04-22T17:52:05.008Z,2.95
2023-04-22T17:57:06.528Z,3.30
2023-04-22T18:02:09.633Z,2.85
2023-04-22T18:07:11.002Z,2.35
2023-04-22T18:12:12.355Z,2.88
2023-04-22T18:17:13.865Z,2.20
2023-04-22T18:22:16.004Z,2.28
2023-04-22T18:27:17.390Z,2.92
2023-04-22T18:32:19.014Z,2.42
2023-04-22T18:37:20.973Z,3.00
2023-04-22T18:42:22.347Z,3.00
2023-04-22T18:47:23.774Z,2.42
2023-04-22T18:52:25.415Z,2.22
2023-04-22T18:57:26.734Z,2.50
2023-04-22T19:02:28.184Z,2.70
2023-04-22T19:07:29.517Z,2.30
2023-04-22T19:12:30.874Z,2.42
2023-04-22T19:17:33.511Z,3.08
2023-04-22T19:22:35.625Z,2.33
2023-04-22T19:27:37.089Z,2.33
2023-04-22T19:32:38.633Z,2.03
2023-04-22T19:37:39.966Z,2.65
2023-04-22T19:42:41.504Z,4.10
2023-04-22T19:47:43.077Z,4.15
2023-04-22T19:52:45.684Z,4.60
2023-04-22T19:57:47.081Z,5.72
2023-04-22T20:02:48.606Z,6.82
2023-04-22T20:07:50.795Z,7.80
2023-04-22T20:12:52.510Z,8.50
2023-04-22T20:17:55.073Z,8.85
2023-04-22T20:22:57.676Z,9.90
2023-04-22T20:27:59.149Z,8.98
2023-04-22T20:33:00.717Z,9.98
2023-04-22T20:38:03.051Z,12.65
2023-04-22T20:43:04.834Z,10.43
2023-04-22T20:48:06.599Z,10.00
2023-04-22T20:53:08.006Z,8.48
2023-04-22T20:58:09.407Z,9.32
2023-04-22T21:03:13.268Z,8.23
2023-04-22T21:08:23.015Z,9.55
2023-04-22T21:13:24.880Z,9.27
2023-04-22T21:18:28.858Z,9.38
2023-04-22T21:23:30.661Z,8.10
2023-04-22T21:28:32.363Z,8.75
2023-04-22T21:33:33.705Z,9.57
2023-04-22T21:38:35.200Z,9.70
2023-04-22T21:43:36.566Z,10.23
2023-04-22T21:48:37.938Z,10.95
2023-04-22T21:53:40.336Z,12.18
2023-04-22T21:58:41.949Z,11.32
2023-04-22T22:03:43.436Z,9.93
2023-04-22T22:08:45.569Z,10.00
2023-04-22T22:13:49.201Z,9.55
2023-04-22T22:18:50.651Z,11.25
2023-04-22T22:23:52.030Z,11.43
2023-04-22T22:28:53.960Z,12.63
2023-04-22T22:33:55.391Z,13.48
2023-04-22T22:38:57.406Z,11.82
2023-04-22T22:43:58.818Z,12.63
2023-04-22T22:49:00.262Z,12.88
2023-04-22T22:54:01.705Z,12.88
2023-04-22T22:59:03.202Z,13.98
2023-04-22T23:04:04.830Z,13.25
2023-04-22T23:09:07.455Z,14.02
2023-04-22T23:14:09.525Z,14.43
2023-04-22T23:19:12.084Z,12.65
2023-04-22T23:24:14.586Z,13.70
2023-04-22T23:29:16.549Z,12.85
2023-04-22T23:34:18.955Z,12.65
2023-04-22T23:39:20.384Z,12.65
2023-04-22T23:44:21.754Z,12.88
2023-04-22T23:49:23.198Z,13.60
2023-04-22T23:54:24.709Z,11.95
2023-04-22T23:59:26.182Z,13.68
